createdAt,value
2022-11-17T00:02:17.476Z,100238.03
2022-11-17T00:04:45.019Z,100238.84
2022-11-17T00:07:11.656Z,100231.91
2022-11-17T00:09:38.266Z,100219.50
2022-11-17T00:12:24.621Z,100219.50
2022-11-17T00:14:53.793Z,100224.13
2022-11-17T00:17:20.429Z,100226.78
2022-11-17T00:20:05.440Z,100227.63
2022-11-17T00:22:32.450Z,100229.44
2022-11-17T00:24:59.283Z,100225.16
2022-11-17T00:27:25.943Z,100227.78
2022-11-17T00:29:52.589Z,100231.44
2022-11-17T00:32:38.104Z,100230.63
2022-11-17T00:35:05.851Z,100235.25
2022-11-17T00:37:59.838Z,100234.28
2022-11-17T00:40:26.696Z,100239.56
2022-11-17T00:42:53.542Z,100229.13
2022-11-17T00:45:20.154Z,100221.19
2022-11-17T00:47:47.502Z,100223.69
2022-11-17T00:50:14.378Z,100219.38
2022-11-17T00:52:40.980Z,100221.88
2022-11-17T00:55:08.045Z,100225.97
2022-11-17T00:57:34.681Z,100227.78
2022-11-17T01:00:01.243Z,100232.06
2022-11-17T01:02:27.833Z,100232.06
2022-11-17T01:04:54.498Z,100216.22
2022-11-17T01:07:22.848Z,100219.69
2022-11-17T01:09:49.622Z,100224.97
2022-11-17T01:12:16.206Z,100217.03
2022-11-17T01:14:42.969Z,100218.84
2022-11-17T01:17:09.565Z,100217.88
2022-11-17T01:19:36.239Z,100227.63
2022-11-17T01:22:02.893Z,100225.16
2022-11-17T01:24:29.596Z,100227.78
2022-11-17T01:26:56.279Z,100223.34
2022-11-17T01:29:22.878Z,100229.44
2022-11-17T01:31:50.898Z,100225.97
2022-11-17T01:34:17.744Z,100220.88
2022-11-17T01:37:02.889Z,100222.88
2022-11-17T01:39:30.784Z,100217.41
2022-11-17T01:41:58.456Z,100208.81
2022-11-17T01:44:49.939Z,100211.44
2022-11-17T01:47:35.767Z,100206.16
2022-11-17T01:50:32.250Z,100202.69
2022-11-17T01:53:00.704Z,100192.94
2022-11-17T01:55:56.383Z,100190.47
2022-11-17T01:58:30.886Z,100187.66
2022-11-17T02:00:57.871Z,100190.31
2022-11-17T02:03:25.527Z,100185.84
2022-11-17T02:05:55.902Z,100183.00
2022-11-17T02:08:24.584Z,100182.03
2022-11-17T02:10:52.126Z,100186.50
2022-11-17T02:13:20.422Z,100182.84
2022-11-17T02:15:47.157Z,100180.00
2022-11-17T02:18:15.846Z,100178.56
2022-11-17T02:20:51.861Z,100190.59
2022-11-17T02:23:47.587Z,100183.66
2022-11-17T02:26:38.985Z,100190.59
2022-11-17T02:29:05.508Z,100180.00
2022-11-17T02:31:53.805Z,100191.41
2022-11-17T02:34:42.617Z,100195.03
2022-11-17T02:37:35.562Z,100186.31
2022-11-17T02:40:21.035Z,100177.56
2022-11-17T02:43:18.392Z,100180.38
2022-11-17T02:45:47.586Z,100183.19
2022-11-17T02:48:19.774Z,100180.38
2022-11-17T02:50:46.990Z,100178.75
2022-11-17T02:53:14.478Z,100180.56
2022-11-17T02:55:41.061Z,100175.25
2022-11-17T02:58:12.074Z,100165.66
2022-11-17T03:01:00.699Z,100165.66
2022-11-17T03:03:34.371Z,100168.31
2022-11-17T03:06:21.766Z,100163.19
2022-11-17T03:09:07.032Z,100157.91
2022-11-17T03:11:42.015Z,100164.88
2022-11-17T03:14:14.531Z,100155.28
2022-11-17T03:16:57.433Z,100156.09
2022-11-17T03:19:31.401Z,100149.97
2022-11-17T03:22:13.131Z,100154.28
2022-11-17T03:24:48.009Z,100153.28
2022-11-17T03:27:19.081Z,100146.19
2022-11-17T03:29:49.854Z,100147.00
2022-11-17T03:32:17.728Z,100145.34
2022-11-17T03:34:46.412Z,100144.19
2022-11-17T03:37:14.150Z,100145.19
2022-11-17T03:39:47.601Z,100153.75
2022-11-17T03:42:26.306Z,100148.47
2022-11-17T03:45:02.566Z,100147.44
2022-11-17T03:47:31.206Z,100155.38
2022-11-17T03:50:20.728Z,100152.72
2022-11-17T03:52:48.122Z,100145.81
2022-11-17T03:55:14.935Z,100147.84
2022-11-17T03:57:51.835Z,100145.19
2022-11-17T04:00:19.842Z,100151.09
2022-11-17T04:02:48.521Z,100158.41
2022-11-17T04:05:17.690Z,100143.53
2022-11-17T04:07:45.878Z,100153.28
2022-11-17T04:10:25.100Z,100139.22
2022-11-17T04:13:12.381Z,100141.88
2022-11-17T04:15:58.857Z,100138.41
2022-11-17T04:18:26.187Z,100132.31
2022-11-17T04:20:54.875Z,100130.66
2022-11-17T04:23:21.821Z,100134.94
2022-11-17T04:26:09.393Z,100136.75
2022-11-17T04:28:38.439Z,100133.31
2022-11-17T04:31:21.593Z,100124.56
2022-11-17T04:33:53.447Z,100128.03
2022-11-17T04:36:24.041Z,100116.44
2022-11-17T04:38:52.853Z,100117.25
2022-11-17T04:41:56.018Z,100126.00
2022-11-17T04:44:25.857Z,100131.97
2022-11-17T04:46:53.628Z,100133.59
2022-11-17T04:49:21.068Z,100129.31
2022-11-17T04:51:48.368Z,100123.03
2022-11-17T04:54:17.301Z,100115.09
2022-11-17T04:56:43.981Z,100122.19
2022-11-17T04:59:10.556Z,100112.63
2022-11-17T05:01:37.209Z,100117.09
2022-11-17T05:04:06.191Z,100110.13
2022-11-17T05:06:37.386Z,100122.38
2022-11-17T05:09:09.164Z,100119.72
2022-11-17T05:11:54.413Z,100112.78
2022-11-17T05:14:22.796Z,100110.13
2022-11-17T05:17:09.939Z,100113.78
2022-11-17T05:19:46.813Z,100107.66
2022-11-17T05:22:34.941Z,100107.88
2022-11-17T05:25:01.769Z,100105.25
2022-11-17T05:27:28.465Z,100095.66
2022-11-17T05:29:55.024Z,100097.31
2022-11-17T05:32:21.679Z,100101.75
2022-11-17T05:34:48.291Z,100086.91
2022-11-17T05:37:14.878Z,100093.81
2022-11-17T05:39:41.452Z,100090.56
2022-11-17T05:42:08.062Z,100087.72
2022-11-17T05:44:34.675Z,100085.91
2022-11-17T05:47:01.318Z,100076.16
2022-11-17T05:49:27.900Z,100078.59
2022-11-17T05:51:54.483Z,100075.94
2022-11-17T05:54:21.064Z,100070.66
2022-11-17T05:56:55.687Z,100079.22
2022-11-17T05:59:27.309Z,100080.88
2022-11-17T06:02:10.400Z,100085.34
2022-11-17T06:04:37.127Z,100079.06
2022-11-17T06:07:03.771Z,100083.53
2022-11-17T06:09:35.884Z,100093.09
2022-11-17T06:12:06.137Z,100095.75
2022-11-17T06:14:34.181Z,100091.47
2022-11-17T06:17:04.370Z,100094.25
2022-11-17T06:19:37.067Z,100083.69
2022-11-17T06:22:12.308Z,100088.97
2022-11-17T06:24:41.087Z,100081.03
2022-11-17T06:27:07.857Z,100078.41
2022-11-17T06:29:38.216Z,100068.22
2022-11-17T06:32:07.550Z,100063.91
2022-11-17T06:34:35.027Z,100070.03
2022-11-17T06:37:01.655Z,100081.44
2022-11-17T06:39:28.302Z,100075.31
2022-11-17T06:41:54.843Z,100085.91
2022-11-17T06:44:21.446Z,100075.50
2022-11-17T06:46:49.385Z,100072.84
2022-11-17T06:49:16.475Z,100069.19
2022-11-17T06:51:45.436Z,100065.94
2022-11-17T06:54:14.406Z,100063.28
2022-11-17T06:56:41.034Z,100064.94
2022-11-17T06:59:07.613Z,100057.00
2022-11-17T07:01:34.202Z,100059.63
2022-11-17T07:04:00.833Z,100052.53
2022-11-17T07:06:27.425Z,100049.06
2022-11-17T07:08:54.080Z,100048.69
2022-11-17T07:11:20.788Z,100051.34
2022-11-17T07:13:47.374Z,100039.75
2022-11-17T07:16:21.699Z,100043.22
2022-11-17T07:18:50.009Z,100028.16
2022-11-17T07:21:16.607Z,100032.66
2022-11-17T07:23:44.954Z,100031.63
2022-11-17T07:26:12.120Z,100045.69
2022-11-17T07:28:39.034Z,100043.22
2022-11-17T07:31:07.767Z,100044.03
2022-11-17T07:33:34.855Z,100046.66
2022-11-17T07:36:06.482Z,100055.44
2022-11-17T07:38:37.033Z,100048.50
2022-11-17T07:41:04.545Z,100054.59
2022-11-17T07:43:31.347Z,100051.94
2022-11-17T07:45:57.978Z,100060.91
2022-11-17T07:48:24.606Z,100061.72
2022-11-17T07:50:51.188Z,100061.91
2022-11-17T07:53:17.798Z,100061.25
2022-11-17T07:55:44.453Z,100076.94
2022-11-17T07:58:11.345Z,100062.94
2022-11-17T08:00:38.033Z,100074.31
2022-11-17T08:03:05.475Z,100063.13
2022-11-17T08:05:39.852Z,100059.63
2022-11-17T08:08:10.112Z,100066.78
2022-11-17T08:10:36.803Z,100064.13
2022-11-17T08:13:03.449Z,100064.94
2022-11-17T08:15:30.705Z,100059.63
2022-11-17T08:17:59.314Z,100052.53
2022-11-17T08:20:26.691Z,100056.81
2022-11-17T08:22:53.529Z,100062.72
2022-11-17T08:25:20.745Z,100061.91
2022-11-17T08:27:51.896Z,100052.13
2022-11-17T08:30:22.349Z,100047.69
2022-11-17T08:32:50.104Z,100031.81
2022-11-17T08:35:17.197Z,100032.66
2022-11-17T08:37:43.974Z,100026.53
2022-11-17T08:40:12.171Z,100030.81
2022-11-17T08:42:38.972Z,100026.53
2022-11-17T08:45:09.312Z,100026.53
2022-11-17T08:47:36.020Z,100028.16
2022-11-17T08:50:03.376Z,100026.53
2022-11-17T08:52:30.083Z,100030.97
2022-11-17T08:54:56.683Z,100023.25
2022-11-17T08:57:23.770Z,100028.34
2022-11-17T08:59:50.769Z,100029.34
2022-11-17T09:02:17.924Z,100035.66
2022-11-17T09:04:46.175Z,100043.59
2022-11-17T09:07:12.881Z,100037.47
2022-11-17T09:09:39.890Z,100031.38
2022-11-17T09:12:06.679Z,100038.47
2022-11-17T09:14:33.304Z,100041.13
2022-11-17T09:16:59.958Z,100041.13
2022-11-17T09:19:26.895Z,100048.25
2022-11-17T09:21:53.468Z,100044.78
2022-11-17T09:24:20.169Z,100047.25
2022-11-17T09:26:46.777Z,100044.59
2022-11-17T09:29:13.441Z,100045.41
2022-11-17T09:31:40.087Z,100047.06
2022-11-17T09:34:06.917Z,100043.59
2022-11-17T09:36:33.805Z,100045.22
2022-11-17T09:39:01.002Z,100049.50
2022-11-17T09:41:33.813Z,100047.69
2022-11-17T09:44:29.568Z,100051.94
2022-11-17T09:47:06.243Z,100046.66
2022-11-17T09:50:03.586Z,100044.03
2022-11-17T09:53:05.622Z,100046.66
2022-11-17T09:55:45.833Z,100038.72
2022-11-17T09:58:30.971Z,100046.66
2022-11-17T10:00:57.692Z,100037.75
2022-11-17T10:03:32.797Z,100036.91
2022-11-17T10:06:01.622Z,100037.09
2022-11-17T10:08:45.179Z,100038.72
2022-11-17T10:11:32.329Z,100039.94
2022-11-17T10:14:08.026Z,100024.25
2022-11-17T10:16:35.962Z,100030.38
2022-11-17T10:19:14.555Z,100023.63
2022-11-17T10:21:41.155Z,100015.69
2022-11-17T10:24:08.099Z,100028.75
2022-11-17T10:26:48.935Z,100033.19
2022-11-17T10:29:22.245Z,100022.63
2022-11-17T10:31:49.204Z,100029.75
2022-11-17T10:34:41.135Z,100020.16
2022-11-17T10:37:12.340Z,100024.47
2022-11-17T10:39:41.696Z,100009.75
2022-11-17T10:42:20.348Z,100019.97
2022-11-17T10:44:51.370Z,100015.88
2022-11-17T10:47:33.760Z,100019.97
2022-11-17T10:50:15.115Z,100016.53
2022-11-17T10:52:41.739Z,100010.22
2022-11-17T10:55:34.373Z,100008.38
2022-11-17T10:58:21.107Z,100005.75
2022-11-17T11:00:53.350Z,99992.50
2022-11-17T11:03:22.807Z,99991.53
2022-11-17T11:06:02.053Z,99993.34
2022-11-17T11:08:36.418Z,99989.69
2022-11-17T11:11:08.582Z,99993.16
2022-11-17T11:13:59.146Z,99984.41
2022-11-17T11:16:27.108Z,99992.16
2022-11-17T11:18:53.794Z,99980.97
2022-11-17T11:21:26.508Z,99975.66
2022-11-17T11:23:58.791Z,99977.28
2022-11-17T11:26:59.887Z,99963.44
2022-11-17T11:29:51.023Z,99957.16
2022-11-17T11:32:46.336Z,99955.50
2022-11-17T11:35:40.663Z,99944.91
2022-11-17T11:38:32.252Z,99953.06
2022-11-17T11:41:30.396Z,99952.06
2022-11-17T11:44:03.064Z,99945.13
2022-11-17T11:46:51.717Z,99936.38
2022-11-17T11:49:48.610Z,99945.13
2022-11-17T11:52:20.409Z,99936.38
2022-11-17T11:54:59.677Z,99936.38
2022-11-17T11:57:31.039Z,99942.50
2022-11-17T12:00:17.648Z,99948.84
2022-11-17T12:03:01.688Z,99937.59
2022-11-17T12:05:52.943Z,99949.25
2022-11-17T12:08:40.049Z,99940.34
2022-11-17T12:11:33.001Z,99934.88
2022-11-17T12:14:01.293Z,99927.38
2022-11-17T12:16:34.547Z,99938.78
2022-11-17T12:19:01.148Z,99931.47
2022-11-17T12:21:27.983Z,99931.47
2022-11-17T12:24:07.566Z,99934.75
2022-11-17T12:26:35.309Z,99922.72
2022-11-17T12:29:20.232Z,99931.28
2022-11-17T12:31:50.873Z,99934.56
2022-11-17T12:34:28.141Z,99924.97
2022-11-17T12:37:15.843Z,99917.03
2022-11-17T12:39:54.191Z,99923.53
2022-11-17T12:42:20.762Z,99924.19
2022-11-17T12:44:47.276Z,99921.72
2022-11-17T12:47:15.155Z,99922.72
2022-11-17T12:50:07.701Z,99924.34
2022-11-17T12:52:46.205Z,99923.53
2022-11-17T12:55:46.645Z,99923.53
2022-11-17T12:58:25.909Z,99920.09
2022-11-17T13:01:06.751Z,99921.91
2022-11-17T13:03:58.432Z,99918.25
2022-11-17T13:06:35.296Z,99915.59
2022-11-17T13:09:10.655Z,99925.38
2022-11-17T13:11:37.346Z,99921.06
2022-11-17T13:14:21.756Z,99913.97
2022-11-17T13:16:50.194Z,99921.91
2022-11-17T13:19:36.432Z,99917.44
2022-11-17T13:22:03.771Z,99913.78
2022-11-17T13:24:32.652Z,99909.94
2022-11-17T13:27:00.798Z,99909.94
2022-11-17T13:29:28.047Z,99906.28
2022-11-17T13:32:15.005Z,99908.91
2022-11-17T13:34:56.328Z,99908.91
2022-11-17T13:37:26.224Z,99907.91
2022-11-17T13:40:16.060Z,99901.19
2022-11-17T13:42:42.759Z,99903.44
2022-11-17T13:45:14.321Z,99907.91
2022-11-17T13:47:46.996Z,99906.28
2022-11-17T13:50:26.775Z,99906.28
2022-11-17T13:53:09.145Z,99904.66
2022-11-17T13:55:35.884Z,99911.75
2022-11-17T13:58:27.186Z,99910.94
2022-11-17T14:00:57.388Z,99903.22
2022-11-17T14:03:41.151Z,99908.31
2022-11-17T14:06:12.746Z,99902.38
2022-11-17T14:08:40.377Z,99896.91
2022-11-17T14:11:21.359Z,99900.75
2022-11-17T14:13:58.939Z,99904.22
2022-11-17T14:16:36.577Z,99898.09
2022-11-17T14:19:05.146Z,99901.75
2022-11-17T14:21:32.564Z,99900.75
2022-11-17T14:24:09.681Z,99898.94
2022-11-17T14:26:41.335Z,99904.41
2022-11-17T14:29:11.490Z,99893.84
2022-11-17T14:31:38.249Z,99894.63
2022-11-17T14:34:04.854Z,99888.53
2022-11-17T14:36:32.307Z,99881.22
2022-11-17T14:38:59.069Z,99892.63
2022-11-17T14:41:25.644Z,99895.28
2022-11-17T14:43:52.294Z,99901.19
2022-11-17T14:46:25.023Z,99892.44
2022-11-17T14:48:52.702Z,99891.44
2022-11-17T14:51:20.312Z,99896.72
2022-11-17T14:53:47.912Z,99897.72
2022-11-17T14:56:16.697Z,99903.81
2022-11-17T14:58:43.416Z,99894.06
2022-11-17T15:01:18.559Z,99892.44
2022-11-17T15:03:45.655Z,99889.81
2022-11-17T15:06:19.536Z,99896.91
2022-11-17T15:08:47.846Z,99897.09
2022-11-17T15:11:17.014Z,99892.63
2022-11-17T15:13:43.754Z,99897.91
2022-11-17T15:16:10.511Z,99888.53
2022-11-17T15:18:37.102Z,99893.66
2022-11-17T15:21:05.279Z,99900.75
2022-11-17T15:23:32.324Z,99899.91
2022-11-17T15:25:59.210Z,99895.47
2022-11-17T15:28:29.135Z,99891.38
2022-11-17T15:30:57.176Z,99902.56
2022-11-17T15:33:23.951Z,99895.47
2022-11-17T15:36:04.164Z,99895.47
2022-11-17T15:38:31.615Z,99891.19
2022-11-17T15:40:58.226Z,99891.00
2022-11-17T15:43:33.014Z,99892.81
2022-11-17T15:46:01.199Z,99899.53
2022-11-17T15:48:28.377Z,99898.53
2022-11-17T15:51:05.146Z,99906.47
2022-11-17T15:53:36.659Z,99906.28
2022-11-17T15:56:08.616Z,99901.00
2022-11-17T15:58:35.626Z,99896.72
2022-11-17T16:01:26.230Z,99896.72
2022-11-17T16:03:57.558Z,99902.00
2022-11-17T16:06:24.299Z,99905.47
2022-11-17T16:08:50.892Z,99901.19
2022-11-17T16:11:17.566Z,99905.66
2022-11-17T16:13:44.216Z,99901.19
2022-11-17T16:16:14.754Z,99899.53
2022-11-17T16:18:41.957Z,99899.72
2022-11-17T16:21:11.315Z,99898.94
2022-11-17T16:23:53.172Z,99898.09
2022-11-17T16:26:19.912Z,99894.03
2022-11-17T16:28:49.274Z,99890.38
2022-11-17T16:31:21.347Z,99891.19
2022-11-17T16:33:49.612Z,99890.38
2022-11-17T16:36:20.207Z,99881.63
2022-11-17T16:39:00.754Z,99884.47
2022-11-17T16:41:32.882Z,99878.34
2022-11-17T16:43:59.952Z,99877.31
2022-11-17T16:46:29.191Z,99883.63
2022-11-17T16:48:56.515Z,99879.16
2022-11-17T16:51:23.130Z,99875.69
2022-11-17T16:53:59.561Z,99872.22
2022-11-17T16:56:26.310Z,99884.28
2022-11-17T16:58:53.318Z,99876.34
2022-11-17T17:01:22.235Z,99884.28
2022-11-17T17:03:48.912Z,99892.00
2022-11-17T17:06:17.377Z,99879.59
2022-11-17T17:08:43.976Z,99885.72
2022-11-17T17:11:15.857Z,99884.69
2022-11-17T17:13:42.846Z,99884.88
2022-11-17T17:16:11.686Z,99889.16
2022-11-17T17:18:39.254Z,99892.63
2022-11-17T17:21:06.868Z,99896.28
2022-11-17T17:23:34.704Z,99895.28
2022-11-17T17:26:06.761Z,99892.81
2022-11-17T17:28:35.432Z,99890.16
2022-11-17T17:31:02.703Z,99907.06
2022-11-17T17:33:33.376Z,99893.00
2022-11-17T17:36:26.698Z,99897.28
2022-11-17T17:38:58.976Z,99894.84
2022-11-17T17:41:27.568Z,99888.72
2022-11-17T17:43:57.008Z,99887.91
2022-11-17T17:46:24.439Z,99885.25
2022-11-17T17:48:51.365Z,99883.44
2022-11-17T17:51:20.236Z,99886.09
2022-11-17T17:53:50.316Z,99885.44
2022-11-17T17:56:19.256Z,99885.25
2022-11-17T17:58:48.583Z,99890.53
2022-11-17T18:01:26.693Z,99894.03
2022-11-17T18:03:59.463Z,99891.38
2022-11-17T18:06:26.184Z,99890.38
2022-11-17T18:08:52.794Z,99892.00
2022-11-17T18:11:20.613Z,99891.00
2022-11-17T18:13:48.981Z,99884.88
2022-11-17T18:16:18.961Z,99884.69
2022-11-17T18:18:46.201Z,99895.28
2022-11-17T18:21:18.033Z,99897.72
2022-11-17T18:23:45.088Z,99888.34
2022-11-17T18:26:11.616Z,99897.72
2022-11-17T18:28:39.538Z,99894.25
2022-11-17T18:31:06.856Z,99900.38
2022-11-17T18:33:33.540Z,99891.81
2022-11-17T18:36:06.698Z,99894.44
2022-11-17T18:38:34.605Z,99895.47
2022-11-17T18:41:12.532Z,99897.28
2022-11-17T18:43:39.191Z,99894.63
2022-11-17T18:46:08.024Z,99897.50
2022-11-17T18:48:36.618Z,99893.84
2022-11-17T18:51:20.434Z,99893.38
2022-11-17T18:53:48.667Z,99896.84
2022-11-17T18:56:18.036Z,99906.41
2022-11-17T18:58:44.857Z,99905.63
2022-11-17T19:01:17.215Z,99905.78
2022-11-17T19:03:45.417Z,99908.25
2022-11-17T19:06:13.684Z,99899.50
2022-11-17T19:08:40.305Z,99911.09
2022-11-17T19:11:08.452Z,99906.59
2022-11-17T19:13:36.778Z,99908.44
2022-11-17T19:16:11.231Z,99909.47
2022-11-17T19:18:38.205Z,99910.25
2022-11-17T19:21:10.893Z,99903.94
2022-11-17T19:23:39.319Z,99900.50
2022-11-17T19:26:07.979Z,99900.31
2022-11-17T19:28:34.921Z,99895.84
2022-11-17T19:31:06.665Z,99895.03
2022-11-17T19:33:34.897Z,99897.28
2022-11-17T19:36:09.176Z,99908.88
2022-11-17T19:38:38.527Z,99901.94
2022-11-17T19:41:10.587Z,99898.28
2022-11-17T19:43:43.377Z,99903.59
2022-11-17T19:46:13.555Z,99896.66
2022-11-17T19:48:40.578Z,99903.75
2022-11-17T19:51:14.452Z,99895.22
2022-11-17T19:53:41.721Z,99902.13
2022-11-17T19:56:08.908Z,99905.63
2022-11-17T19:58:35.519Z,99913.53
2022-11-17T20:01:15.880Z,99910.06
2022-11-17T20:03:43.165Z,99908.44
2022-11-17T20:06:11.890Z,99904.16
2022-11-17T20:08:38.709Z,99908.44
2022-11-17T20:11:10.433Z,99907.63
2022-11-17T20:13:37.569Z,99914.75
2022-11-17T20:16:11.526Z,99917.38
2022-11-17T20:18:38.772Z,99914.75
2022-11-17T20:21:06.331Z,99914.75
2022-11-17T20:23:34.792Z,99911.09
2022-11-17T20:26:08.522Z,99912.91
2022-11-17T20:28:36.450Z,99916.56
2022-11-17T20:31:12.044Z,99910.06
2022-11-17T20:33:39.112Z,99919.81
2022-11-17T20:36:06.654Z,99918.84
2022-11-17T20:38:33.924Z,99912.53
2022-11-17T20:41:00.869Z,99923.09
2022-11-17T20:43:28.355Z,99923.09
2022-11-17T20:45:55.740Z,99927.38
2022-11-17T20:48:23.373Z,99920.28
2022-11-17T20:51:07.417Z,99925.56
2022-11-17T20:53:34.289Z,99923.09
2022-11-17T20:56:02.681Z,99918.66
2022-11-17T20:58:30.210Z,99930.22
2022-11-17T21:00:56.920Z,99922.47
2022-11-17T21:03:24.444Z,99926.75
2022-11-17T21:05:59.500Z,99923.28
2022-11-17T21:08:27.793Z,99922.47
2022-11-17T21:10:58.680Z,99924.31
2022-11-17T21:13:26.004Z,99927.97
2022-11-17T21:16:22.064Z,99934.03
2022-11-17T21:18:49.216Z,99925.50
2022-11-17T21:21:15.852Z,99925.50
2022-11-17T21:23:43.960Z,99927.31
2022-11-17T21:26:17.094Z,99934.22
2022-11-17T21:28:43.774Z,99929.16
2022-11-17T21:31:12.191Z,99937.91
2022-11-17T21:33:39.365Z,99932.59
2022-11-17T21:36:08.216Z,99928.34
2022-11-17T21:38:35.015Z,99932.59
2022-11-17T21:41:17.409Z,99936.25
2022-11-17T21:43:45.335Z,99933.63
2022-11-17T21:46:14.529Z,99935.25
2022-11-17T21:48:41.630Z,99928.94
2022-11-17T21:51:17.315Z,99921.84
2022-11-17T21:53:44.367Z,99928.75
2022-11-17T21:56:11.311Z,99926.13
2022-11-17T21:58:37.912Z,99942.63
2022-11-17T22:01:12.696Z,99940.16
2022-11-17T22:03:40.731Z,99941.78
2022-11-17T22:06:15.994Z,99939.16
2022-11-17T22:08:43.622Z,99937.53
2022-11-17T22:11:12.477Z,99937.53
2022-11-17T22:13:39.708Z,99931.59
2022-11-17T22:16:12.267Z,99928.94
2022-11-17T22:18:39.629Z,99943.00
2022-11-17T22:21:07.109Z,99940.53
2022-11-17T22:23:34.258Z,99941.97
2022-11-17T22:26:03.235Z,99944.00
2022-11-17T22:28:30.577Z,99944.00
2022-11-17T22:30:57.251Z,99957.22
2022-11-17T22:33:24.219Z,99950.09
2022-11-17T22:35:51.437Z,99958.25
2022-11-17T22:38:18.033Z,99955.59
2022-11-17T22:40:45.352Z,99956.41
2022-11-17T22:43:15.277Z,99959.22
2022-11-17T22:45:42.470Z,99960.06
2022-11-17T22:48:09.292Z,99965.53
2022-11-17T22:50:36.366Z,99963.72
2022-11-17T22:53:03.440Z,99966.97
2022-11-17T22:55:30.454Z,99960.88
2022-11-17T22:57:57.112Z,99962.50
2022-11-17T23:00:23.854Z,99963.31
2022-11-17T23:02:50.543Z,99964.97
2022-11-17T23:05:17.681Z,99974.53
2022-11-17T23:07:44.576Z,99971.88
2022-11-17T23:10:11.623Z,99970.25
2022-11-17T23:12:38.491Z,99966.59
2022-11-17T23:15:06.238Z,99962.13
2022-11-17T23:17:32.923Z,99965.59
2022-11-17T23:19:59.838Z,99963.97
2022-11-17T23:22:26.456Z,99968.41
2022-11-17T23:24:53.036Z,99973.72
2022-11-17T23:27:20.189Z,99981.63
2022-11-17T23:29:46.787Z,99989.75
2022-11-17T23:32:13.395Z,99992.41
2022-11-17T23:34:40.227Z,99997.06
2022-11-17T23:37:06.821Z,99994.25
2022-11-17T23:39:33.521Z,99994.44
2022-11-17T23:42:00.145Z,100003.19
2022-11-17T23:44:26.688Z,99998.88
2022-11-17T23:46:53.348Z,99997.25
2022-11-17T23:49:20.195Z,100000.72
2022-11-17T23:51:46.928Z,99992.78
2022-11-17T23:54:13.842Z,99989.31
2022-11-17T23:56:40.783Z,99983.19
2022-11-17T23:59:08.240Z,99984.22
